Time;durP1;ratioP1;P1;durP2;ratioP2;P2;SDS_P1;SDS_P2;PMS_P1;PMS_P2;Temp;Humidity;BMP_temperature;BMP_pressure;BME280_temperature;BME280_humidity;BME280_pressure;Samples;Min_cycle;Max_cycle;Signal;HPM_P1;HPM_P2
2022/08/03 00:00:03;;;;;;;;;;;;;;;17.11;100.00;100400.47;3053876;19;1055;-50
2022/08/03 00:01:17;;;;;;;;;;;;;;;17.07;100.00;100407.97;3046718;19;1121;-51
2022/08/03 00:02:19;;;;;;;;;;;;;;;17.04;100.00;100399.31;3046234;19;1031;-52
2022/08/03 00:03:24;;;;;;;;;;;;;;;17.04;100.00;100400.16;3046065;19;971;-52
2022/08/03 00:04:26;;;;;;;;;;;;;;;17.05;100.00;100414.50;3048669;19;1282;-51
2022/08/03 00:05:38;;;;;;;;;;;;;;;17.04;100.00;100404.69;3049416;19;988;-52
2022/08/03 00:06:40;;;;;;;;;;;;;;;17.04;100.00;100413.63;3048870;19;1851;-51
2022/08/03 00:07:44;;;;;;;;;;;;;;;17.04;100.00;100402.00;3049198;19;1167;-50
2022/08/03 00:08:49;;;;;;;;;;;;;;;17.03;100.00;100397.59;3053718;19;1373;-51
2022/08/03 00:09:53;;;;;;;;;;;;;;;17.04;100.00;100405.56;3052927;19;1699;-51
2022/08/03 00:10:55;;;;;;;;;;;;;;;17.07;100.00;100401.72;3054831;19;981;-51
2022/08/03 00:11:59;;;;;;;;;;;;;;;17.04;100.00;100400.16;3053824;19;949;-51
2022/08/03 00:13:01;;;;;;;;;;;;;;;17.02;100.00;100406.72;3053904;19;894;-50
2022/08/03 00:14:09;;;;;;;;;;;;;;;17.00;100.00;100411.38;3053486;19;1188;-50
2022/08/03 00:15:11;;;;;;;;;;;;;;;16.98;100.00;100411.50;3054020;19;1678;-52
2022/08/03 00:16:20;;;;;;;;;;;;;;;16.95;100.00;100410.91;3054065;19;1205;-51
2022/08/03 00:17:23;;;;;;;;;;;;;;;16.95;100.00;100410.91;3054165;19;1077;-51
2022/08/03 00:18:28;;;;;;;;;;;;;;;16.91;100.00;100419.28;3054090;19;949;-51
2022/08/03 00:19:29;;;;;;;;;;;;;;;16.88;100.00;100422.25;3054524;19;975;-51
2022/08/03 00:20:34;;;;;;;;;;;;;;;16.86;100.00;100402.69;3053696;19;1737;-50
2022/08/03 00:21:36;;;;;;;;;;;;;;;16.85;100.00;100413.59;3054020;19;920;-51
2022/08/03 00:22:40;;;;;;;;;;;;;;;16.82;100.00;100414.72;3053614;19;1031;-51
2022/08/03 00:23:42;;;;;;;;;;;;;;;16.81;100.00;100423.78;3046388;19;931;-51
2022/08/03 00:24:55;;;;;;;;;;;;;;;16.76;100.00;100420.66;3045079;19;1320;-51
2022/08/03 00:25:57;;;;;;;;;;;;;;;16.74;100.00;100422.63;3046313;19;978;-51
2022/08/03 00:27:02;;;;;;;;;;;;;;;16.72;100.00;100411.13;3047777;19;1816;-52
2022/08/03 00:28:04;;;;;;;;;;;;;;;16.69;100.00;100421.31;3048689;19;1090;-51
2022/08/03 00:29:08;;;;;;;;;;;;;;;16.67;100.00;100417.91;3048440;19;999;-51
2022/08/03 00:30:10;;;;;;;;;;;;;;;16.66;100.00;100422.47;3049699;19;1464;-50
2022/08/03 00:31:15;;;;;;;;;;;;;;;16.62;100.00;100418.31;3053792;19;921;-51
2022/08/03 00:32:17;;;;;;;;;;;;;;;16.62;100.00;100422.81;3054099;19;961;-50
2022/08/03 00:33:25;;;;;;;;;;;;;;;16.61;100.00;100413.88;3056977;19;1441;-51
2022/08/03 00:34:30;;;;;;;;;;;;;;;16.60;100.00;100417.56;3056405;19;968;-52
2022/08/03 00:35:55;;;;;;;;;;;;;;;16.61;100.00;100413.88;3056545;19;1020;-51
2022/08/03 00:36:57;;;;;;;;;;;;;;;16.61;100.00;100413.88;3057008;19;1081;-52
2022/08/03 00:38:01;;;;;;;;;;;;;;;16.58;100.00;100417.69;3056853;19;1310;-50
2022/08/03 00:39:03;;;;;;;;;;;;;;;16.59;100.00;100415.84;3056370;19;1108;-51
2022/08/03 00:40:08;;;;;;;;;;;;;;;16.59;100.00;100426.63;3056788;19;1048;-50
2022/08/03 00:41:09;;;;;;;;;;;;;;;16.56;100.00;100416.13;3056909;19;941;-50
2022/08/03 00:42:18;;;;;;;;;;;;;;;16.56;100.00;100416.13;3057260;19;976;-51
2022/08/03 00:43:25;;;;;;;;;;;;;;;16.55;100.00;100417.09;3056736;19;1165;-50
2022/08/03 00:44:27;;;;;;;;;;;;;;;16.53;100.00;100422.66;3056226;19;1233;-50
2022/08/03 00:45:36;;;;;;;;;;;;;;;16.52;100.00;100422.78;3051721;19;1385;-51
2022/08/03 00:46:38;;;;;;;;;;;;;;;16.49;100.00;100421.19;3049695;19;1088;-51
2022/08/03 00:47:42;;;;;;;;;;;;;;;16.49;100.00;100423.03;3047272;19;1850;-51
2022/08/03 00:48:47;;;;;;;;;;;;;;;16.47;100.00;100422.31;3049564;19;1143;-51
2022/08/03 00:49:48;;;;;;;;;;;;;;;16.45;100.00;100413.50;3051006;19;1340;-52
2022/08/03 00:50:53;;;;;;;;;;;;;;;16.42;100.00;100420.00;3051588;19;1135;-51
2022/08/03 00:51:55;;;;;;;;;;;;;;;16.42;100.00;100420.00;3051963;19;1232;-50
2022/08/03 00:53:00;;;;;;;;;;;;;;;16.42;100.00;100429.97;3053059;19;1008;-51
2022/08/03 00:54:02;;;;;;;;;;;;;;;16.40;100.00;100416.63;3055866;19;1028;-51
2022/08/03 00:55:06;;;;;;;;;;;;;;;16.40;100.00;100423.84;3056827;19;1671;-51
2022/08/03 00:56:08;;;;;;;;;;;;;;;16.39;100.00;100419.44;3056999;19;968;-50
2022/08/03 00:57:13;;;;;;;;;;;;;;;16.37;100.00;100427.66;3056604;19;1682;-51
2022/08/03 00:58:15;;;;;;;;;;;;;;;16.37;100.00;100416.03;3056344;19;1047;-51
2022/08/03 00:59:19;;;;;;;;;;;;;;;16.37;100.00;100416.03;3057099;19;975;-51
2022/08/03 01:00:22;;;;;;;;;;;;;;;16.37;100.00;100421.41;3055868;19;976;-51
2022/08/03 01:01:28;;;;;;;;;;;;;;;16.38;100.00;100423.13;3055128;19;1024;-51
2022/08/03 01:02:33;;;;;;;;;;;;;;;16.37;100.00;100422.28;3056905;19;924;-51
2022/08/03 01:03:37;;;;;;;;;;;;;;;16.37;100.00;100421.41;3056499;19;933;-50
2022/08/03 01:04:39;;;;;;;;;;;;;;;16.36;100.00;100425.09;3056829;19;1022;-51
2022/08/03 01:05:51;;;;;;;;;;;;;;;16.35;100.00;100418.00;3056938;19;1632;-51
2022/08/03 01:06:56;;;;;;;;;;;;;;;16.36;100.00;100420.56;3055539;19;1137;-51
2022/08/03 01:08:03;;;;;;;;;;;;;;;16.36;100.00;100419.69;3050789;19;1883;-53
2022/08/03 01:09:11;;;;;;;;;;;;;;;16.36;100.00;100414.31;3047995;19;1080;-51
2022/08/03 01:10:34;;;;;;;;;;;;;;;16.36;100.00;100414.31;3047420;19;1372;-52
2022/08/03 01:11:35;;;;;;;;;;;;;;;16.36;100.00;100425.09;3049769;19;1087;-51
2022/08/03 01:13:18;;;;;;;;;;;;;;;16.37;100.00;100416.03;3050937;19;1323;-50
2022/08/03 01:14:49;;;;;;;;;;;;;;;16.37;100.00;100413.34;3051054;19;1387;-51
2022/08/03 01:15:53;;;;;;;;;;;;;;;16.35;100.00;100412.59;3056284;19;1006;-51
2022/08/03 01:17:01;;;;;;;;;;;;;;;16.34;100.00;100414.44;3056648;19;909;-50
2022/08/03 01:18:12;;;;;;;;;;;;;;;16.33;100.00;100417.28;3055662;19;956;-50
2022/08/03 01:19:16;;;;;;;;;;;;;;;16.31;100.00;100427.31;3055815;19;1066;-52
2022/08/03 01:20:19;;;;;;;;;;;;;;;16.30;100.00;100431.03;3056513;19;1060;-50
2022/08/03 01:21:26;;;;;;;;;;;;;;;16.27;100.00;100431.28;3055228;19;937;-51
2022/08/03 01:22:48;;;;;;;;;;;;;;;16.20;100.00;100437.19;3055103;19;920;-50
2022/08/03 01:24:07;;;;;;;;;;;;;;;16.20;100.00;100428.25;3056184;19;1096;-50
2022/08/03 01:25:12;;;;;;;;;;;;;;;16.17;100.00;100425.84;3055072;19;1330;-50
2022/08/03 01:26:35;;;;;;;;;;;;;;;16.13;100.00;100436.00;3056023;19;976;-51
2022/08/03 01:27:43;;;;;;;;;;;;;;;16.20;100.00;100418.31;3055870;19;1862;-51
2022/08/03 01:29:01;;;;;;;;;;;;;;;16.22;100.00;100415.50;3055506;19;1052;-51
2022/08/03 01:30:04;;;;;;;;;;;;;;;16.15;100.00;100425.97;3054716;19;1353;-50
2022/08/03 01:31:09;;;;;;;;;;;;;;;16.13;100.00;100430.63;3048074;19;1083;-51
2022/08/03 01:32:13;;;;;;;;;;;;;;;16.10;100.00;100430.88;3048246;19;902;-51
2022/08/03 01:33:38;;;;;;;;;;;;;;;16.08;100.00;100422.06;3048155;19;1118;-50
2022/08/03 01:34:44;;;;;;;;;;;;;;;16.07;100.00;100423.06;3050285;19;1052;-51
2022/08/03 01:35:49;;;;;;;;;;;;;;;16.09;100.00;100421.09;3050383;19;1112;-51
2022/08/03 01:36:51;;;;;;;;;;;;;;;16.09;100.00;100422.94;3050293;19;939;-51
2022/08/03 01:37:59;;;;;;;;;;;;;;;16.11;100.00;100424.50;3052270;19;1008;-52
2022/08/03 01:39:02;;;;;;;;;;;;;;;16.10;100.00;100420.09;3055282;19;869;-51
2022/08/03 01:40:06;;;;;;;;;;;;;;;16.11;100.00;100421.81;3055071;19;1063;-50
2022/08/03 01:41:13;;;;;;;;;;;;;;;16.10;100.00;100412.03;3056226;19;1003;-52
2022/08/03 01:42:17;;;;;;;;;;;;;;;16.06;100.00;100418.66;3055396;19;1078;-51
2022/08/03 01:43:20;;;;;;;;;;;;;;;16.06;100.00;100418.66;3054543;19;865;-50
2022/08/03 01:44:47;;;;;;;;;;;;;;;16.04;100.00;100420.66;3055865;19;1006;-51
2022/08/03 01:45:49;;;;;;;;;;;;;;;16.04;100.00;100419.78;3054967;19;1305;-51
2022/08/03 01:46:53;;;;;;;;;;;;;;;16.02;100.00;100413.69;3054899;19;1034;-52
2022/08/03 01:47:55;;;;;;;;;;;;;;;16.00;100.00;100419.19;3054822;19;1859;-51
2022/08/03 01:49:00;;;;;;;;;;;;;;;16.00;100.00;100412.94;3055572;19;980;-51
2022/08/03 01:50:10;;;;;;;;;;;;;;;15.98;100.00;100415.78;3055493;19;1043;-51
2022/08/03 01:51:14;;;;;;;;;;;;;;;15.98;100.00;100415.78;3054954;19;1704;-51
2022/08/03 01:52:16;;;;;;;;;;;;;;;15.98;100.00;100415.78;3055429;19;983;-50
2022/08/03 01:53:21;;;;;;;;;;;;;;;15.98;100.00;100415.78;3048688;19;1147;-51
2022/08/03 01:54:23;;;;;;;;;;;;;;;15.98;100.00;100405.00;3046785;19;1301;-51
2022/08/03 01:55:28;;;;;;;;;;;;;;;15.97;100.00;100408.69;3047541;19;940;-51
2022/08/03 01:56:29;;;;;;;;;;;;;;;15.97;100.00;100408.69;3048977;19;1315;-51
2022/08/03 01:57:34;;;;;;;;;;;;;;;15.97;100.00;100403.28;3049166;19;1000;-51
2022/08/03 01:58:56;;;;;;;;;;;;;;;15.92;100.00;100399.31;3050424;19;1037;-51
2022/08/03 02:00:00;;;;;;;;;;;;;;;15.94;100.00;100398.16;3050395;19;1104;-50
2022/08/03 02:01:12;;;;;;;;;;;;;;;15.95;100.00;100405.25;3054525;19;979;-51
2022/08/03 02:02:18;;;;;;;;;;;;;;;15.94;100.00;100406.25;3054463;19;836;-51
2022/08/03 02:03:36;;;;;;;;;;;;;;;15.94;100.00;100398.16;3054998;19;1043;-51
2022/08/03 02:04:40;;;;;;;;;;;;;;;15.94;100.00;100403.56;3054424;19;1116;-50
2022/08/03 02:05:42;;;;;;;;;;;;;;;15.93;100.00;100404.56;3055516;19;924;-50
2022/08/03 02:06:47;;;;;;;;;;;;;;;15.93;100.00;100398.31;3055017;19;964;-51
2022/08/03 02:08:06;;;;;;;;;;;;;;;15.94;100.00;100397.34;3054980;19;1853;-51
2022/08/03 02:09:08;;;;;;;;;;;;;;;15.91;100.00;100387.69;3054576;19;1028;-50
2022/08/03 02:10:13;;;;;;;;;;;;;;;15.96;100.00;100403.44;3054613;19;1700;-50
2022/08/03 02:11:15;;;;;;;;;;;;;;;15.96;100.00;100396.19;3054685;19;1097;-50
2022/08/03 02:12:20;;;;;;;;;;;;;;;15.96;100.00;100401.59;3055451;19;1078;-51
2022/08/03 02:13:22;;;;;;;;;;;;;;;15.94;100.00;100403.56;3054752;19;1091;-52
2022/08/03 02:14:26;;;;;;;;;;;;;;;15.94;100.00;100395.47;3055011;19;948;-51
2022/08/03 02:15:28;;;;;;;;;;;;;;;15.96;100.00;100403.44;3049191;19;971;-50
2022/08/03 02:16:34;;;;;;;;;;;;;;;15.96;100.00;100396.19;3046978;19;1597;-51
2022/08/03 02:17:39;;;;;;;;;;;;;;;15.97;100.00;100397.91;3047411;19;925;-50
2022/08/03 02:18:41;;;;;;;;;;;;;;;15.95;100.00;100393.63;3048466;19;1189;-51
2022/08/03 02:19:45;;;;;;;;;;;;;;;15.95;100.00;100397.19;3049819;19;1408;-50
2022/08/03 02:20:47;;;;;;;;;;;;;;;15.95;100.00;100394.50;3050728;19;1342;-50
2022/08/03 02:21:52;;;;;;;;;;;;;;;15.94;100.00;100402.72;3050620;19;983;-53
2022/08/03 02:23:05;;;;;;;;;;;;;;;15.94;100.00;100395.47;3053573;19;1241;-51
2022/08/03 02:24:08;;;;;;;;;;;;;;;15.88;100.00;100398.69;3054972;19;1351;-50
2022/08/03 02:25:13;;;;;;;;;;;;;;;15.84;100.00;100387.34;3055134;19;941;-51
2022/08/03 02:26:15;;;;;;;;;;;;;;;15.90;100.00;100396.75;3055823;19;1055;-51
2022/08/03 02:27:22;;;;;;;;;;;;;;;15.90;100.00;100402.13;3054971;19;1131;-51
2022/08/03 02:28:25;;;;;;;;;;;;;;;15.90;100.00;100395.88;3054872;19;1833;-51
2022/08/03 02:29:31;;;;;;;;;;;;;;;15.90;100.00;100401.28;3054665;19;964;-52
2022/08/03 02:30:42;;;;;;;;;;;;;;;15.89;100.00;100400.41;3054824;19;1079;-50
2022/08/03 02:31:46;;;;;;;;;;;;;;;15.89;100.00;100403.09;3054629;19;987;-51
2022/08/03 02:32:50;;;;;;;;;;;;;;;15.88;100.00;100403.22;3055134;19;944;-51
2022/08/03 02:33:56;;;;;;;;;;;;;;;15.88;100.00;100398.69;3054814;19;942;-50
2022/08/03 02:34:58;;;;;;;;;;;;;;;15.92;100.00;100396.63;3054719;19;1094;-51
2022/08/03 02:36:02;;;;;;;;;;;;;;;15.94;100.00;100397.34;3054246;19;1111;-51
2022/08/03 02:37:04;;;;;;;;;;;;;;;15.88;100.00;100401.41;3054620;19;1174;-51
2022/08/03 02:38:09;;;;;;;;;;;;;;;15.85;100.00;100389.03;3048842;19;935;-51
2022/08/03 02:39:12;;;;;;;;;;;;;;;15.86;100.00;100395.28;3046107;19;1162;-50
2022/08/03 02:41:49;;;;;;;;;;;;;;;15.88;100.00;100397.84;3048323;19;1879;-54
2022/08/03 02:42:52;;;;;;;;;;;;;;;15.90;100.00;100395.88;3056406;19;975;-51
2022/08/03 02:43:57;;;;;;;;;;;;;;;15.91;100.00;100398.44;3056099;19;1866;-51
2022/08/03 02:45:12;;;;;;;;;;;;;;;15.92;100.00;100394.78;3056270;19;1349;-51
2022/08/03 02:46:19;;;;;;;;;;;;;;;15.94;100.00;100398.16;3056381;19;1028;-51
2022/08/03 02:47:26;;;;;;;;;;;;;;;15.96;100.00;100401.59;3057841;19;928;-51
2022/08/03 02:48:28;;;;;;;;;;;;;;;15.97;100.00;100397.91;3056827;19;948;-51
2022/08/03 02:49:32;;;;;;;;;;;;;;;15.98;100.00;100401.47;3056147;19;1850;-51
2022/08/03 02:50:54;;;;;;;;;;;;;;;15.99;100.00;100395.94;3056905;19;856;-51
2022/08/03 02:51:57;;;;;;;;;;;;;;;16.01;100.00;100404.75;3057188;19;935;-51
2022/08/03 02:53:01;;;;;;;;;;;;;;;16.02;100.00;100405.59;3056257;19;1672;-51
2022/08/03 02:54:03;;;;;;;;;;;;;;;16.03;100.00;100408.16;3056971;19;873;-50
2022/08/03 02:55:08;;;;;;;;;;;;;;;16.04;100.00;100406.34;3055717;19;1104;-51
2022/08/03 02:56:10;;;;;;;;;;;;;;;16.03;100.00;100392.03;3056459;19;909;-51
2022/08/03 02:57:15;;;;;;;;;;;;;;;16.05;100.00;100405.34;3056403;19;892;-51
2022/08/03 02:58:18;;;;;;;;;;;;;;;16.06;100.00;100405.19;3056984;19;1059;-51
2022/08/03 02:59:22;;;;;;;;;;;;;;;16.06;100.00;100397.13;3056238;19;1665;-51
2022/08/03 03:00:24;;;;;;;;;;;;;;;16.07;100.00;100392.59;3056610;19;1134;-51
2022/08/03 03:01:31;;;;;;;;;;;;;;;16.06;100.00;100405.19;3056435;19;956;-51
2022/08/03 03:02:35;;;;;;;;;;;;;;;16.09;100.00;100402.25;3056657;19;1047;-51
2022/08/03 03:03:39;;;;;;;;;;;;;;;16.10;100.00;100398.56;3056415;19;1032;-51
2022/08/03 03:04:45;;;;;;;;;;;;;;;16.11;100.00;100394.91;3056529;19;1004;-51
2022/08/03 03:06:10;;;;;;;;;;;;;;;16.11;100.00;100394.91;3056875;19;975;-50
2022/08/03 03:07:12;;;;;;;;;;;;;;;16.11;100.00;100394.91;3056571;19;1047;-51
2022/08/03 03:08:20;;;;;;;;;;;;;;;16.12;100.00;100399.31;3056592;19;998;-51
2022/08/03 03:09:26;;;;;;;;;;;;;;;16.15;100.00;100399.03;3052600;19;1986;-52
2022/08/03 03:10:43;;;;;;;;;;;;;;;16.16;100.00;100395.38;3054064;19;986;-51
2022/08/03 03:11:48;;;;;;;;;;;;;;;16.18;100.00;100397.94;3046998;19;1027;-51
2022/08/03 03:12:51;;;;;;;;;;;;;;;16.21;100.00;100387.72;3044929;19;985;-52
2022/08/03 03:13:55;;;;;;;;;;;;;;;16.23;100.00;100395.69;3045155;19;919;-51
2022/08/03 03:14:57;;;;;;;;;;;;;;;16.27;100.00;100393.56;3047890;19;908;-51
2022/08/03 03:16:02;;;;;;;;;;;;;;;16.31;100.00;100397.69;3047564;19;898;-52
2022/08/03 03:17:07;;;;;;;;;;;;;;;16.34;100.00;100400.13;3048068;19;1508;-52
2022/08/03 03:18:12;;;;;;;;;;;;;;;16.35;100.00;100397.31;3047195;19;969;-51
2022/08/03 03:19:14;;;;;;;;;;;;;;;16.39;100.00;100403.28;3053091;19;1032;-52
2022/08/03 03:20:18;;;;;;;;;;;;;;;16.43;100.00;100400.16;3053675;19;1668;-51
2022/08/03 03:21:33;;;;;;;;;;;;;;;16.49;100.00;100409.56;3054639;19;1189;-51
2022/08/03 03:22:35;;;;;;;;;;;;;;;16.53;100.00;100411.03;3053121;19;1149;-51
2022/08/03 03:23:40;;;;;;;;;;;;;;;16.59;100.00;100399.69;3053543;19;1685;-51
2022/08/03 03:24:42;;;;;;;;;;;;;;;16.65;100.00;100401.03;3053761;19;972;-52
2022/08/03 03:25:47;;;;;;;;;;;;;;;16.71;100.00;100403.19;3054289;19;1007;-51
2022/08/03 03:26:48;;;;;;;;;;;;;;;16.78;100.00;100402.50;3054195;19;933;-51
2022/08/03 03:27:54;;;;;;;;;;;;;;;16.86;100.00;100402.69;3054615;19;952;-51
2022/08/03 03:28:58;;;;;;;;;;;;;;;16.96;100.00;100412.63;3054212;19;971;-51
2022/08/03 03:30:02;;;;;;;;;;;;;;;17.05;100.00;100403.72;3054283;19;1838;-51
2022/08/03 03:31:05;;;;;;;;;;;;;;;17.17;100.00;100405.31;3053758;19;1098;-51
2022/08/03 03:32:09;;;;;;;;;;;;;;;17.32;100.00;100401.22;3053084;19;956;-51
2022/08/03 03:33:11;;;;;;;;;;;;;;;17.50;100.00;100396.00;3054001;19;1056;-53
2022/08/03 03:34:15;;;;;;;;;;;;;;;17.69;100.00;100396.03;3047749;19;1395;-52
2022/08/03 03:35:17;;;;;;;;;;;;;;;17.87;100.00;100396.19;3045108;19;943;-51
2022/08/03 03:36:22;;;;;;;;;;;;;;;18.05;100.00;100402.53;3044898;19;968;-53
2022/08/03 03:37:25;;;;;;;;;;;;;;;18.33;100.00;100401.63;3046211;19;1393;-52
2022/08/03 03:38:29;;;;;;;;;;;;;;;18.55;100.00;100395.03;3047667;19;1044;-52
2022/08/03 03:39:31;;;;;;;;;;;;;;;18.62;100.00;100389.88;3048554;19;973;-51
2022/08/03 03:40:39;;;;;;;;;;;;;;;18.56;100.00;100396.72;3047700;19;1647;-51
2022/08/03 03:41:41;;;;;;;;;;;;;;;18.53;100.00;100404.25;3052344;19;1004;-50
2022/08/03 03:42:45;;;;;;;;;;;;;;;18.51;100.00;100403.56;3052626;19;864;-52
2022/08/03 03:43:48;;;;;;;;;;;;;;;18.54;100.00;100411.38;3053861;19;907;-50
2022/08/03 03:44:54;;;;;;;;;;;;;;;18.57;100.00;100402.97;3053610;19;921;-50
2022/08/03 03:45:57;;;;;;;;;;;;;;;18.64;100.00;100404.97;3054772;19;999;-51
2022/08/03 03:47:01;;;;;;;;;;;;;;;18.74;100.00;100407.63;3054201;19;959;-51
2022/08/03 03:48:03;;;;;;;;;;;;;;;18.82;100.00;100401.50;3054077;19;893;-51
2022/08/03 03:49:08;;;;;;;;;;;;;;;18.86;100.00;100402.88;3053774;19;1042;-51
2022/08/03 03:50:11;;;;;;;;;;;;;;;18.91;100.00;100406.84;3053658;19;1829;-51
2022/08/03 03:51:15;;;;;;;;;;;;;;;18.98;100.00;100407.09;3054162;19;849;-52
2022/08/03 03:52:17;;;;;;;;;;;;;;;19.06;100.00;100405.34;3053169;19;932;-51
2022/08/03 03:53:22;;;;;;;;;;;;;;;19.12;100.00;100409.28;3053767;19;1010;-51
2022/08/03 03:54:24;;;;;;;;;;;;;;;19.17;100.00;100411.56;3053705;19;873;-51
2022/08/03 03:55:32;;;;;;;;;;;;;;;19.25;100.00;100419.75;3053939;19;990;-51
2022/08/03 03:56:34;;;;;;;;;;;;;;;19.35;100.00;100420.53;3048158;19;896;-51
2022/08/03 03:57:38;;;;;;;;;;;;;;;19.43;100.00;100420.66;3045019;19;1035;-51
2022/08/03 03:58:40;;;;;;;;;;;;;;;19.50;100.00;100424.47;3044201;19;972;-51
2022/08/03 03:59:45;;;;;;;;;;;;;;;19.58;100.00;100420.97;3045824;19;909;-51
2022/08/03 04:00:46;;;;;;;;;;;;;;;19.64;100.00;100425.78;3048342;19;957;-51
2022/08/03 04:01:51;;;;;;;;;;;;;;;19.69;100.00;100429.72;3046590;19;1645;-52
2022/08/03 04:03:00;;;;;;;;;;;;;;;19.75;100.00;100439.94;3047694;19;1391;-51
2022/08/03 04:10:57;;;;;;;;;;;;;;;19.79;100.00;100435.09;3052294;19;1145;-52
2022/08/03 04:12:00;;;;;;;;;;;;;;;20.20;100.00;100474.22;3056034;19;993;-51
2022/08/03 04:13:02;;;;;;;;;;;;;;;20.31;100.00;100473.97;3056265;19;992;-51
2022/08/03 04:14:36;;;;;;;;;;;;;;;20.41;100.00;100491.00;3055807;19;1041;-51
2022/08/03 04:15:38;;;;;;;;;;;;;;;20.45;100.00;100495.13;3056387;19;1389;-51
2022/08/03 04:16:44;;;;;;;;;;;;;;;20.47;100.00;100500.38;3055925;19;1092;-51
2022/08/03 04:17:46;;;;;;;;;;;;;;;20.45;100.00;100508.66;3055849;19;1072;-52
2022/08/03 04:18:55;;;;;;;;;;;;;;;20.40;100.00;100512.88;3050530;19;1739;-51
2022/08/03 04:20:00;;;;;;;;;;;;;;;20.37;100.00;100521.31;3047573;19;972;-51
2022/08/03 04:21:02;;;;;;;;;;;;;;;20.34;100.00;100518.88;3047030;19;932;-51
2022/08/03 04:22:08;;;;;;;;;;;;;;;20.32;100.00;100524.44;3049297;19;1169;-53
2022/08/03 04:23:10;;;;;;;;;;;;;;;20.32;100.00;100540.72;3051764;19;1032;-53
2022/08/03 04:24:18;;;;;;;;;;;;;;;20.38;100.00;100529.28;3051020;19;905;-51
2022/08/03 04:25:20;;;;;;;;;;;;;;;20.48;100.00;100540.03;3051034;19;1030;-51
2022/08/03 04:26:25;;;;;;;;;;;;;;;20.71;100.00;100551.25;3054114;19;1041;-52
2022/08/03 04:27:28;;;;;;;;;;;;;;;21.03;100.00;100545.16;3056262;19;992;-51
2022/08/03 04:28:32;;;;;;;;;;;;;;;21.66;100.00;100558.41;3055560;19;1453;-51
2022/08/03 04:29:35;;;;;;;;;;;;;;;22.41;100.00;100571.03;3056223;19;985;-52
2022/08/03 04:30:46;;;;;;;;;;;;;;;23.09;100.00;100592.44;3055428;19;1936;-51
2022/08/03 04:31:48;;;;;;;;;;;;;;;23.59;100.00;100604.94;3056546;19;1121;-51
2022/08/03 04:32:53;;;;;;;;;;;;;;;23.77;100.00;100630.09;3055837;19;995;-51
2022/08/03 04:33:55;;;;;;;;;;;;;;;23.63;100.00;100641.72;3056011;19;1168;-52
2022/08/03 04:35:00;;;;;;;;;;;;;;;23.42;100.00;100645.00;3055818;19;1011;-52
2022/08/03 04:36:03;;;;;;;;;;;;;;;23.31;100.00;100662.53;3056433;19;1194;-52
2022/08/03 04:37:10;;;;;;;;;;;;;;;23.22;100.00;100660.84;3057286;19;1079;-52
2022/08/03 04:38:13;;;;;;;;;;;;;;;23.17;100.00;100671.41;3057326;19;956;-51
2022/08/03 04:39:20;;;;;;;;;;;;;;;23.18;100.00;100675.84;3055643;19;932;-51
2022/08/03 04:40:26;;;;;;;;;;;;;;;23.29;100.00;100683.66;3056506;19;1055;-51
2022/08/03 04:41:33;;;;;;;;;;;;;;;23.21;100.00;100683.63;3049083;19;1298;-52
2022/08/03 04:42:55;;;;;;;;;;;;;;;22.93;100.00;100685.03;3047390;19;976;-52
2022/08/03 04:44:00;;;;;;;;;;;;;;;22.78;100.00;100684.00;3046852;19;1047;-52
2022/08/03 04:45:03;;;;;;;;;;;;;;;22.69;100.00;100677.66;3049878;19;1331;-52
2022/08/03 04:46:07;;;;;;;;;;;;;;;22.77;100.00;100680.41;3049975;19;1774;-51
2022/08/03 04:47:09;;;;;;;;;;;;;;;22.82;100.00;100679.91;3050719;19;992;-51
2022/08/03 04:48:14;;;;;;;;;;;;;;;22.61;100.00;100675.75;3049245;19;1198;-52
2022/08/03 04:49:16;;;;;;;;;;;;;;;22.40;100.00;100679.97;3055898;19;1087;-52
2022/08/03 04:50:20;;;;;;;;;;;;;;;22.21;100.00;100671.09;3056191;19;1844;-52
2022/08/03 04:51:39;;;;;;;;;;;;;;;22.03;100.00;100666.75;3056657;19;980;-51
2022/08/03 04:52:43;;;;;;;;;;;;;;;21.89;100.00;100657.31;3057219;19;924;-51
2022/08/03 04:53:45;;;;;;;;;;;;;;;21.76;100.00;100646.91;3053644;19;1688;-52
2022/08/03 04:54:49;;;;;;;;;;;;;;;21.69;100.00;100655.88;3054771;19;1424;-51
2022/08/03 04:55:51;;;;;;;;;;;;;;;21.60;100.00;100655.00;3054122;19;1340;-51
2022/08/03 04:56:56;;;;;;;;;;;;;;;21.52;100.00;100652.22;3055467;19;1708;-51
2022/08/03 04:57:58;;;;;;;;;;;;;;;21.35;100.00;100631.44;3055168;19;1365;-52
2022/08/03 04:59:02;;;;;;;;;;;;;;;21.39;100.00;100651.78;3054893;19;1676;-52
2022/08/03 05:00:05;;;;;;;;;;;;;;;21.35;100.00;100654.00;3054810;19;1018;-50
2022/08/03 05:01:10;;;;;;;;;;;;;;;21.31;100.00;100649.03;3054512;19;1691;-51
2022/08/03 05:02:12;;;;;;;;;;;;;;;21.29;100.00;100632.91;3053823;19;1400;-51
2022/08/03 05:03:16;;;;;;;;;;;;;;;21.29;100.00;100637.47;3055003;19;856;-51
2022/08/03 05:04:25;;;;;;;;;;;;;;;21.28;100.00;100636.63;3047289;19;948;-51
2022/08/03 05:05:29;;;;;;;;;;;;;;;21.25;100.00;100638.84;3047468;19;1827;-51
2022/08/03 05:06:53;;;;;;;;;;;;;;;21.22;100.00;100631.00;3048765;19;1111;-53
2022/08/03 05:07:59;;;;;;;;;;;;;;;21.22;100.00;100631.00;3051046;19;865;-51
2022/08/03 05:09:04;;;;;;;;;;;;;;;21.23;100.00;100640.84;3050606;19;881;-51
2022/08/03 05:10:10;;;;;;;;;;;;;;;21.20;100.00;100637.44;3051456;19;976;-52
2022/08/03 05:11:17;;;;;;;;;;;;;;;21.24;100.00;100628.97;3053702;19;1841;-51
2022/08/03 05:12:22;;;;;;;;;;;;;;;21.28;100.00;100633.91;3056296;19;1754;-51
2022/08/03 05:13:25;;;;;;;;;;;;;;;21.30;100.00;100636.47;3056586;19;1055;-51
2022/08/03 05:14:29;;;;;;;;;;;;;;;21.32;100.00;100640.75;3056085;19;1214;-51
2022/08/03 05:15:31;;;;;;;;;;;;;;;21.38;100.00;100636.50;3056437;19;981;-51
2022/08/03 05:16:36;;;;;;;;;;;;;;;21.45;100.00;100637.59;3056744;19;988;-51
2022/08/03 05:17:37;;;;;;;;;;;;;;;21.55;100.00;100635.59;3055688;19;1422;-51
2022/08/03 05:18:43;;;;;;;;;;;;;;;21.66;100.00;100640.75;3053529;19;988;-52
2022/08/03 05:19:45;;;;;;;;;;;;;;;21.79;100.00;100635.72;3055381;19;1051;-51
2022/08/03 05:20:50;;;;;;;;;;;;;;;21.87;100.00;100643.91;3055521;19;1286;-51
2022/08/03 05:21:51;;;;;;;;;;;;;;;22.07;100.00;100638.25;3054781;19;967;-53
2022/08/03 05:22:56;;;;;;;;;;;;;;;22.18;100.00;100654.25;3055049;19;984;-51
2022/08/03 05:23:58;;;;;;;;;;;;;;;22.24;100.00;100650.84;3053904;19;1562;-52
2022/08/03 05:25:03;;;;;;;;;;;;;;;22.28;100.00;100660.41;3054368;19;1615;-51
2022/08/03 05:26:05;;;;;;;;;;;;;;;22.30;100.00;100660.22;3050767;19;984;-51
2022/08/03 05:27:16;;;;;;;;;;;;;;;22.27;100.00;100664.13;3046053;19;1670;-54
2022/08/03 05:28:18;;;;;;;;;;;;;;;22.22;100.00;100666.47;3045117;19;1576;-52
2022/08/03 05:29:23;;;;;;;;;;;;;;;22.17;100.00;100667.00;3047186;19;1003;-51
2022/08/03 05:30:24;;;;;;;;;;;;;;;22.13;100.00;100664.75;3049251;19;1636;-51
2022/08/03 05:31:37;;;;;;;;;;;;;;;22.06;100.00;100669.16;3048653;19;1894;-51
2022/08/03 05:32:39;;;;;;;;;;;;;;;22.00;100.00;100667.09;3049326;19;1688;-51
2022/08/03 05:33:44;;;;;;;;;;;;;;;21.93;100.00;100665.00;3052413;19;1683;-52
2022/08/03 05:34:46;;;;;;;;;;;;;;;21.87;100.00;100675.66;3054534;19;1156;-51
2022/08/03 05:35:50;;;;;;;;;;;;;;;21.80;100.00;100675.47;3054612;19;1651;-51
2022/08/03 05:37:03;;;;;;;;;;;;;;;21.77;100.00;100674.94;3054530;19;1863;-51
2022/08/03 05:38:07;;;;;;;;;;;;;;;21.74;100.00;100673.38;3053109;19;1063;-52
2022/08/03 05:39:09;;;;;;;;;;;;;;;21.72;100.00;100678.16;3054598;19;1432;-51
2022/08/03 05:40:14;;;;;;;;;;;;;;;21.66;100.00;100670.63;3054251;19;1069;-51
2022/08/03 05:41:16;;;;;;;;;;;;;;;21.60;100.00;100665.00;3054938;19;1480;-51
2022/08/03 05:42:27;;;;;;;;;;;;;;;21.55;100.00;100670.91;3054943;19;1230;-51
2022/08/03 05:43:30;;;;;;;;;;;;;;;21.47;100.00;100677.16;3053710;19;1467;-51
2022/08/03 05:44:37;;;;;;;;;;;;;;;21.41;100.00;100674.22;3053500;19;1459;-51
2022/08/03 05:45:40;;;;;;;;;;;;;;;21.36;100.00;100676.56;3053629;19;1037;-52
2022/08/03 05:46:44;;;;;;;;;;;;;;;21.31;100.00;100676.19;3054177;19;1173;-51